createdAt,value
2023-05-17T00:01:11.979Z,98113.03
2023-05-17T00:03:42.319Z,98121.44
2023-05-17T00:06:13.001Z,98126.00
2023-05-17T00:08:45.954Z,98132.53
2023-05-17T00:11:16.258Z,98120.72
2023-05-17T00:13:46.452Z,98132.97
2023-05-17T00:16:17.894Z,98137.06
2023-05-17T00:18:48.256Z,98136.28
2023-05-17T00:21:18.536Z,98131.56
2023-05-17T00:23:51.354Z,98136.28
2023-05-17T00:26:21.581Z,98137.84
2023-05-17T00:28:51.764Z,98140.59
2023-05-17T00:31:21.934Z,98140.72
2023-05-17T00:33:52.152Z,98139.28
2023-05-17T00:36:22.456Z,98134.69
2023-05-17T00:38:55.210Z,98142.19
2023-05-17T00:41:25.530Z,98139.53
2023-05-17T00:43:56.041Z,98144.41
2023-05-17T00:46:26.320Z,98143.00
2023-05-17T00:48:56.553Z,98152.59
2023-05-17T00:51:26.859Z,98155.47
2023-05-17T00:53:59.605Z,98159.44
2023-05-17T00:56:29.817Z,98161.84
2023-05-17T00:58:59.989Z,98160.72
2023-05-17T01:01:30.359Z,98150.28
2023-05-17T01:04:00.868Z,98147.88
2023-05-17T01:06:31.472Z,98145.53
2023-05-17T01:09:04.810Z,98139.19
2023-05-17T01:11:43.683Z,98146.31
2023-05-17T01:14:26.816Z,98149.72
2023-05-17T01:17:00.083Z,98150.41
2023-05-17T01:19:48.183Z,98146.44
2023-05-17T01:22:24.202Z,98147.53
2023-05-17T01:25:07.986Z,98146.31
2023-05-17T01:27:44.447Z,98146.44
2023-05-17T01:30:18.404Z,98137.06
2023-05-17T01:32:49.032Z,98141.81
2023-05-17T01:35:19.482Z,98138.63
2023-05-17T01:37:49.744Z,98147.31
2023-05-17T01:40:20.663Z,98149.72
2023-05-17T01:42:58.197Z,98149.09
2023-05-17T01:45:31.276Z,98163.75
2023-05-17T01:48:10.092Z,98167.03
2023-05-17T01:50:41.893Z,98171.13
2023-05-17T01:53:15.080Z,98166.03
2023-05-17T01:55:51.514Z,98162.53
2023-05-17T01:58:25.680Z,98156.34
2023-05-17T02:00:58.238Z,98161.78
2023-05-17T02:03:31.213Z,98166.16
2023-05-17T02:06:01.516Z,98174.00
2023-05-17T02:08:31.712Z,98175.31
2023-05-17T02:11:01.954Z,98180.34
2023-05-17T02:13:36.571Z,98172.56
2023-05-17T02:16:07.591Z,98172.00
2023-05-17T02:18:38.480Z,98174.31
2023-05-17T02:21:10.250Z,98179.94
2023-05-17T02:23:40.636Z,98184.34
2023-05-17T02:26:10.912Z,98187.09
2023-05-17T02:28:43.939Z,98179.28
2023-05-17T02:31:14.106Z,98188.63
2023-05-17T02:33:44.317Z,98185.78
2023-05-17T02:36:14.557Z,98184.88
2023-05-17T02:38:44.776Z,98180.84
2023-05-17T02:41:15.954Z,98191.38
2023-05-17T02:43:48.851Z,98188.53
2023-05-17T02:46:19.439Z,98188.09
2023-05-17T02:48:50.924Z,98181.38
2023-05-17T02:51:21.218Z,98183.34
2023-05-17T02:53:51.631Z,98183.81
2023-05-17T02:56:22.095Z,98184.38
2023-05-17T02:58:55.748Z,98193.84
2023-05-17T03:01:26.478Z,98191.63
2023-05-17T03:03:57.103Z,98183.38
2023-05-17T03:06:27.752Z,98188.97
2023-05-17T03:08:58.060Z,98194.25
2023-05-17T03:11:28.977Z,98209.75
2023-05-17T03:14:03.757Z,98212.47
2023-05-17T03:16:35.369Z,98229.13
2023-05-17T03:19:05.766Z,98223.25
2023-05-17T03:21:36.450Z,98228.09
2023-05-17T03:24:08.036Z,98236.56
2023-05-17T03:26:40.000Z,98238.72
2023-05-17T03:29:14.794Z,98237.63
2023-05-17T03:31:47.323Z,98248.88
2023-05-17T03:34:18.359Z,98239.19
2023-05-17T03:36:48.677Z,98237.91
2023-05-17T03:39:19.087Z,98240.22
2023-05-17T03:41:49.421Z,98243.97
2023-05-17T03:44:22.432Z,98239.81
2023-05-17T03:46:55.322Z,98233.69
2023-05-17T03:49:26.819Z,98235.44
2023-05-17T03:51:57.486Z,98235.69
2023-05-17T03:54:27.779Z,98237.91
2023-05-17T03:56:58.066Z,98250.34
2023-05-17T03:59:30.993Z,98250.47
2023-05-17T04:02:01.533Z,98256.84
2023-05-17T04:04:33.087Z,98272.03
2023-05-17T04:07:03.297Z,98268.31
2023-05-17T04:09:35.282Z,98264.16
2023-05-17T04:12:05.554Z,98269.44
2023-05-17T04:14:38.759Z,98265.59
2023-05-17T04:17:09.186Z,98270.44
2023-05-17T04:19:39.596Z,98261.31
2023-05-17T04:22:09.877Z,98266.69
2023-05-17T04:24:40.258Z,98272.38
2023-05-17T04:27:10.641Z,98276.53
2023-05-17T04:29:43.700Z,98272.91
2023-05-17T04:32:16.954Z,98275.34
2023-05-17T04:34:47.169Z,98277.41
2023-05-17T04:37:20.756Z,98283.81
2023-05-17T04:39:54.311Z,98275.94
2023-05-17T04:42:24.648Z,98279.78
2023-05-17T04:45:01.726Z,98281.09
2023-05-17T04:47:33.531Z,98285.91
2023-05-17T04:50:05.859Z,98284.13
2023-05-17T04:52:38.692Z,98281.69
2023-05-17T04:55:09.897Z,98294.28
2023-05-17T04:57:40.609Z,98291.97
2023-05-17T05:00:17.319Z,98296.47
2023-05-17T05:02:52.904Z,98300.09
2023-05-17T05:05:25.294Z,98303.56
2023-05-17T05:07:55.611Z,98308.97
2023-05-17T05:10:28.826Z,98304.84
2023-05-17T05:12:59.781Z,98300.78
2023-05-17T05:15:32.639Z,98310.47
2023-05-17T05:18:04.029Z,98312.72
2023-05-17T05:20:34.980Z,98316.34
2023-05-17T05:23:07.949Z,98317.91
2023-05-17T05:25:41.301Z,98321.44
2023-05-17T05:28:11.513Z,98317.84
2023-05-17T05:30:46.893Z,98313.91
2023-05-17T05:33:18.305Z,98319.00
2023-05-17T05:35:49.549Z,98323.16
2023-05-17T05:38:19.750Z,98328.69
2023-05-17T05:40:50.905Z,98327.19
2023-05-17T05:43:21.079Z,98325.72
2023-05-17T05:45:53.863Z,98324.25
2023-05-17T05:48:25.182Z,98326.22
2023-05-17T05:50:55.609Z,98332.72
2023-05-17T05:53:25.791Z,98335.19
2023-05-17T05:55:58.367Z,98317.69
2023-05-17T05:58:29.102Z,98325.97
2023-05-17T06:01:05.320Z,98330.34
2023-05-17T06:03:36.406Z,98322.97
2023-05-17T06:06:06.936Z,98320.81
2023-05-17T06:08:37.107Z,98328.44
2023-05-17T06:11:07.545Z,98336.28
2023-05-17T06:13:37.735Z,98342.03
2023-05-17T06:16:10.685Z,98348.34
2023-05-17T06:18:41.166Z,98345.66
2023-05-17T06:21:13.587Z,98348.75
2023-05-17T06:23:43.750Z,98362.47
2023-05-17T06:26:13.963Z,98362.78
2023-05-17T06:28:44.113Z,98362.31
2023-05-17T06:31:17.760Z,98360.38
2023-05-17T06:33:49.337Z,98358.88
2023-05-17T06:36:19.477Z,98363.66
2023-05-17T06:38:49.669Z,98366.00
2023-05-17T06:41:19.856Z,98374.47
2023-05-17T06:43:50.100Z,98378.03
2023-05-17T06:46:23.015Z,98377.09
2023-05-17T06:48:53.279Z,98373.94
2023-05-17T06:51:23.631Z,98373.84
2023-05-17T06:53:53.846Z,98371.75
2023-05-17T06:56:24.756Z,98373.16
2023-05-17T06:58:54.903Z,98381.03
2023-05-17T07:01:28.269Z,98381.38
2023-05-17T07:03:58.609Z,98382.94
2023-05-17T07:06:28.827Z,98382.59
2023-05-17T07:08:59.018Z,98387.81
2023-05-17T07:11:29.180Z,98387.50
2023-05-17T07:13:59.330Z,98386.91
2023-05-17T07:16:32.119Z,98386.38
2023-05-17T07:19:02.419Z,98394.66
2023-05-17T07:21:32.720Z,98394.56
2023-05-17T07:24:02.997Z,98389.44
2023-05-17T07:26:33.181Z,98378.63
2023-05-17T07:29:03.327Z,98386.00
2023-05-17T07:31:36.510Z,98390.38
2023-05-17T07:34:06.788Z,98380.91
2023-05-17T07:36:37.084Z,98387.69
2023-05-17T07:39:08.976Z,98389.81
2023-05-17T07:41:39.941Z,98382.22
2023-05-17T07:44:10.081Z,98387.94
2023-05-17T07:46:43.016Z,98383.56
2023-05-17T07:49:13.267Z,98380.34
2023-05-17T07:51:43.569Z,98384.97
2023-05-17T07:54:16.951Z,98389.75
2023-05-17T07:56:47.166Z,98389.09
2023-05-17T07:59:17.369Z,98393.00
2023-05-17T08:01:50.346Z,98395.81
2023-05-17T08:04:21.166Z,98399.19
2023-05-17T08:06:51.379Z,98401.09
2023-05-17T08:09:21.592Z,98396.03
2023-05-17T08:11:51.924Z,98389.91
2023-05-17T08:14:24.446Z,98393.81
2023-05-17T08:16:57.249Z,98396.91
2023-05-17T08:19:27.701Z,98389.69
2023-05-17T08:22:01.251Z,98403.09
2023-05-17T08:24:31.465Z,98402.41
2023-05-17T08:27:03.964Z,98402.28
2023-05-17T08:29:34.107Z,98395.00
2023-05-17T08:32:07.300Z,98395.94
2023-05-17T08:34:37.496Z,98395.72
2023-05-17T08:37:08.335Z,98379.59
2023-05-17T08:39:38.610Z,98389.97
2023-05-17T08:42:11.118Z,98392.13
2023-05-17T08:44:42.357Z,98392.47
2023-05-17T08:47:26.551Z,98398.25
2023-05-17T08:50:00.224Z,98383.88
2023-05-17T08:52:33.150Z,98388.28
2023-05-17T08:55:05.548Z,98384.59
2023-05-17T08:57:37.902Z,98386.81
2023-05-17T09:00:12.710Z,98380.97
2023-05-17T09:02:45.667Z,98387.25
2023-05-17T09:05:16.733Z,98392.28
2023-05-17T09:07:47.310Z,98387.53
2023-05-17T09:10:17.694Z,98400.25
2023-05-17T09:12:48.311Z,98397.47
2023-05-17T09:15:20.107Z,98401.16
2023-05-17T09:17:57.574Z,98402.81
2023-05-17T09:20:34.309Z,98396.78
2023-05-17T09:23:04.904Z,98399.19
2023-05-17T09:25:35.115Z,98404.25
2023-05-17T09:28:09.378Z,98405.47
2023-05-17T09:30:42.295Z,98411.81
2023-05-17T09:33:17.764Z,98408.94
2023-05-17T09:35:49.297Z,98417.50
2023-05-17T09:38:19.366Z,98411.25
2023-05-17T09:40:51.239Z,98410.81
2023-05-17T09:43:27.376Z,98405.75
2023-05-17T09:46:01.029Z,98415.38
2023-05-17T09:48:34.232Z,98413.53
2023-05-17T09:51:04.976Z,98406.78
2023-05-17T09:53:40.079Z,98416.94
2023-05-17T09:56:11.051Z,98407.53
2023-05-17T09:58:41.320Z,98420.28
2023-05-17T10:01:11.853Z,98417.97
2023-05-17T10:03:44.857Z,98426.97
2023-05-17T10:06:23.805Z,98436.31
2023-05-17T10:09:06.924Z,98429.31
2023-05-17T10:11:39.119Z,98435.16
2023-05-17T10:14:13.499Z,98439.88
2023-05-17T10:16:44.287Z,98437.09
2023-05-17T10:19:19.849Z,98446.19
2023-05-17T10:21:51.273Z,98440.84
2023-05-17T10:24:24.998Z,98446.88
2023-05-17T10:26:55.658Z,98440.53
2023-05-17T10:29:26.498Z,98438.78
2023-05-17T10:31:56.877Z,98437.53
2023-05-17T10:34:31.231Z,98441.72
2023-05-17T10:37:01.795Z,98433.72
2023-05-17T10:39:32.463Z,98441.38
2023-05-17T10:42:14.361Z,98430.63
2023-05-17T10:44:45.654Z,98430.34
2023-05-17T10:47:17.879Z,98430.44
2023-05-17T10:49:52.164Z,98425.31
2023-05-17T10:52:24.818Z,98428.69
2023-05-17T10:54:57.126Z,98416.03
2023-05-17T11:00:12.595Z,98420.53
2023-05-17T11:02:43.929Z,98425.94
2023-05-17T11:05:29.921Z,98420.41
2023-05-17T11:08:15.932Z,98422.25
2023-05-17T11:11:14.284Z,98430.78
2023-05-17T11:13:55.305Z,98424.03
2023-05-17T11:16:31.042Z,98416.72
2023-05-17T11:19:10.674Z,98403.53
2023-05-17T11:21:51.853Z,98397.53
2023-05-17T11:24:28.980Z,98396.03
2023-05-17T11:27:01.513Z,98400.41
2023-05-17T11:29:32.963Z,98401.19
2023-05-17T11:32:09.065Z,98399.16
2023-05-17T11:34:39.486Z,98403.22
2023-05-17T11:37:28.843Z,98397.13
2023-05-17T11:40:07.119Z,98403.19
2023-05-17T11:42:38.505Z,98401.72
2023-05-17T11:45:10.139Z,98395.75
2023-05-17T11:47:43.461Z,98385.13
2023-05-17T11:50:15.106Z,98377.59
2023-05-17T11:52:48.343Z,98393.78
2023-05-17T11:55:19.132Z,98386.84
2023-05-17T11:57:49.492Z,98395.00
2023-05-17T12:00:20.716Z,98403.22
2023-05-17T12:02:51.019Z,98390.97
2023-05-17T12:05:23.268Z,98392.41
2023-05-17T12:07:56.121Z,98378.94
2023-05-17T12:10:26.721Z,98380.53
2023-05-17T12:12:57.115Z,98392.44
2023-05-17T12:15:28.354Z,98381.91
2023-05-17T12:17:58.751Z,98381.81
2023-05-17T12:20:30.275Z,98384.59
2023-05-17T12:23:03.516Z,98388.34
2023-05-17T12:25:33.822Z,98397.53
2023-05-17T12:28:16.548Z,98392.09
2023-05-17T12:30:47.268Z,98398.41
2023-05-17T12:33:17.995Z,98402.00
2023-05-17T12:35:48.627Z,98407.53
2023-05-17T12:38:21.884Z,98411.22
2023-05-17T12:40:52.477Z,98408.81
2023-05-17T12:43:24.492Z,98416.06
2023-05-17T12:45:56.079Z,98426.63
2023-05-17T12:48:29.770Z,98413.66
2023-05-17T12:51:00.029Z,98418.06
2023-05-17T12:53:41.172Z,98418.16
2023-05-17T12:56:11.943Z,98412.63
2023-05-17T12:58:42.120Z,98420.72
2023-05-17T13:01:14.779Z,98417.13
2023-05-17T13:03:45.076Z,98434.56
2023-05-17T13:06:15.359Z,98431.28
2023-05-17T13:08:48.254Z,98425.59
2023-05-17T13:11:18.693Z,98408.41
2023-05-17T13:13:49.233Z,98419.47
2023-05-17T13:16:19.441Z,98419.97
2023-05-17T13:18:53.809Z,98427.59
2023-05-17T13:21:24.735Z,98423.97
2023-05-17T13:23:57.576Z,98421.78
2023-05-17T13:26:27.821Z,98434.84
2023-05-17T13:28:58.064Z,98434.06
2023-05-17T13:31:28.352Z,98435.59
2023-05-17T13:33:58.668Z,98434.59
2023-05-17T13:36:31.651Z,98434.84
2023-05-17T13:39:04.906Z,98438.44
2023-05-17T13:41:35.192Z,98426.28
2023-05-17T13:44:05.348Z,98425.97
2023-05-17T13:46:35.716Z,98431.19
2023-05-17T13:49:08.099Z,98410.28
2023-05-17T13:51:39.794Z,98408.09
2023-05-17T13:54:13.445Z,98407.69
2023-05-17T13:56:43.843Z,98406.69
2023-05-17T13:59:14.037Z,98411.34
2023-05-17T14:01:45.577Z,98424.09
2023-05-17T14:04:15.897Z,98423.84
2023-05-17T14:06:48.636Z,98432.78
2023-05-17T14:09:22.174Z,98422.47
2023-05-17T14:11:52.385Z,98441.34
2023-05-17T14:14:25.264Z,98448.53
2023-05-17T14:16:55.477Z,98451.03
2023-05-17T14:19:25.805Z,98439.03
2023-05-17T14:21:56.196Z,98444.44
2023-05-17T14:24:29.148Z,98448.25
2023-05-17T14:26:59.403Z,98444.13
2023-05-17T14:29:30.564Z,98448.84
2023-05-17T14:32:00.921Z,98455.88
2023-05-17T14:34:31.181Z,98462.13
2023-05-17T14:37:01.440Z,98453.94
2023-05-17T14:39:34.340Z,98451.97
2023-05-17T14:42:04.586Z,98460.94
2023-05-17T14:44:34.958Z,98457.44
2023-05-17T14:47:05.285Z,98448.53
2023-05-17T14:49:35.496Z,98454.41
2023-05-17T14:52:05.703Z,98449.13
2023-05-17T14:54:38.702Z,98450.44
2023-05-17T14:57:09.034Z,98452.09
2023-05-17T14:59:39.576Z,98451.31
2023-05-17T15:02:11.898Z,98453.19
2023-05-17T15:04:42.207Z,98451.72
2023-05-17T15:07:12.505Z,98456.53
2023-05-17T15:09:46.102Z,98459.66
2023-05-17T15:12:16.398Z,98461.84
2023-05-17T15:14:47.847Z,98456.03
2023-05-17T15:17:18.168Z,98464.19
2023-05-17T15:19:48.546Z,98460.56
2023-05-17T15:22:20.232Z,98470.94
2023-05-17T15:24:54.459Z,98468.22
2023-05-17T15:27:24.663Z,98465.91
2023-05-17T15:29:55.044Z,98455.47
2023-05-17T15:32:25.317Z,98458.50
2023-05-17T15:34:55.819Z,98448.81
2023-05-17T15:37:26.378Z,98452.41
2023-05-17T15:39:59.304Z,98448.34
2023-05-17T15:42:29.420Z,98450.13
2023-05-17T15:44:59.607Z,98432.50
2023-05-17T15:47:42.661Z,98442.38
2023-05-17T15:50:14.579Z,98442.34
2023-05-17T15:52:44.943Z,98455.25
2023-05-17T15:55:17.913Z,98450.50
2023-05-17T15:57:48.364Z,98454.84
2023-05-17T16:00:19.369Z,98456.88
2023-05-17T16:02:49.779Z,98457.94
2023-05-17T16:05:20.079Z,98452.50
2023-05-17T16:07:50.231Z,98448.91
2023-05-17T16:10:23.293Z,98449.91
2023-05-17T16:12:53.506Z,98454.81
2023-05-17T16:15:24.024Z,98448.97
2023-05-17T16:17:54.503Z,98443.16
2023-05-17T16:20:24.877Z,98450.66
2023-05-17T16:22:55.107Z,98451.84
2023-05-17T16:25:28.944Z,98452.63
2023-05-17T16:27:59.464Z,98460.66
2023-05-17T16:30:29.805Z,98453.00
2023-05-17T16:33:00.157Z,98458.47
2023-05-17T16:35:31.274Z,98469.72
2023-05-17T16:38:01.657Z,98463.47
2023-05-17T16:40:34.645Z,98460.63
2023-05-17T16:43:04.865Z,98469.50
2023-05-17T16:45:35.192Z,98467.81
2023-05-17T16:48:05.496Z,98470.44
2023-05-17T16:50:35.886Z,98469.78
2023-05-17T16:53:06.110Z,98473.25
2023-05-17T16:55:39.336Z,98469.75
2023-05-17T16:58:09.563Z,98469.22
2023-05-17T17:00:39.802Z,98475.09
2023-05-17T17:03:10.202Z,98476.53
2023-05-17T17:05:40.864Z,98473.38
2023-05-17T17:08:11.088Z,98465.84
2023-05-17T17:10:43.928Z,98471.13
2023-05-17T17:13:14.135Z,98475.63
2023-05-17T17:15:44.435Z,98480.16
2023-05-17T17:18:14.732Z,98486.50
2023-05-17T17:20:45.446Z,98489.25
2023-05-17T17:23:15.954Z,98490.72
2023-05-17T17:25:48.831Z,98489.16
2023-05-17T17:28:19.187Z,98499.41
2023-05-17T17:30:51.541Z,98492.38
2023-05-17T17:33:22.118Z,98492.56
2023-05-17T17:35:52.580Z,98495.50
2023-05-17T17:38:23.041Z,98500.00
2023-05-17T17:40:55.944Z,98503.00
2023-05-17T17:43:26.230Z,98498.13
2023-05-17T17:45:56.667Z,98500.06
2023-05-17T17:48:27.293Z,98505.06
2023-05-17T17:50:57.612Z,98510.56
2023-05-17T17:53:28.993Z,98515.56
2023-05-17T17:56:01.853Z,98519.09
2023-05-17T17:58:32.716Z,98519.69
2023-05-17T18:01:03.121Z,98518.75
2023-05-17T18:03:33.379Z,98518.44
2023-05-17T18:06:04.902Z,98522.22
2023-05-17T18:08:35.089Z,98519.81
2023-05-17T18:11:08.062Z,98521.91
2023-05-17T18:13:38.776Z,98526.53
2023-05-17T18:16:09.540Z,98524.13
2023-05-17T18:18:41.031Z,98525.38
2023-05-17T18:21:11.648Z,98530.25
2023-05-17T18:23:41.866Z,98532.00
2023-05-17T18:26:15.082Z,98537.69
2023-05-17T18:28:45.676Z,98536.91
2023-05-17T18:31:16.043Z,98541.41
2023-05-17T18:33:46.457Z,98541.78
2023-05-17T18:36:16.844Z,98544.28
2023-05-17T18:38:47.663Z,98547.91
2023-05-17T18:41:21.138Z,98548.84
2023-05-17T18:43:51.385Z,98546.47
2023-05-17T18:46:21.798Z,98544.56
2023-05-17T18:48:52.828Z,98537.13
2023-05-17T18:51:23.078Z,98543.69
2023-05-17T18:53:53.966Z,98550.06
2023-05-17T18:56:26.923Z,98547.03
2023-05-17T18:58:57.675Z,98548.94
2023-05-17T19:01:28.519Z,98559.97
2023-05-17T19:03:59.181Z,98559.66
2023-05-17T19:06:32.029Z,98556.88
2023-05-17T19:09:04.510Z,98564.31
2023-05-17T19:11:37.318Z,98561.44
2023-05-17T19:14:07.550Z,98564.97
2023-05-17T19:16:37.772Z,98576.31
2023-05-17T19:19:08.141Z,98574.63
2023-05-17T19:21:38.467Z,98574.03
2023-05-17T19:24:09.515Z,98576.22
2023-05-17T19:26:42.523Z,98580.41
2023-05-17T19:29:12.770Z,98581.53
2023-05-17T19:31:43.019Z,98581.13
2023-05-17T19:34:13.291Z,98590.69
2023-05-17T19:36:43.496Z,98591.34
2023-05-17T19:39:13.729Z,98594.72
2023-05-17T19:41:46.556Z,98591.66
2023-05-17T19:44:16.853Z,98593.81
2023-05-17T19:46:47.280Z,98593.53
2023-05-17T19:49:17.589Z,98591.69
2023-05-17T19:51:48.398Z,98592.78
2023-05-17T19:54:18.669Z,98598.06
2023-05-17T19:56:51.507Z,98593.72
2023-05-17T19:59:21.713Z,98597.91
2023-05-17T20:01:52.104Z,98607.81
2023-05-17T20:04:22.385Z,98603.97
2023-05-17T20:06:52.711Z,98615.41
2023-05-17T20:09:25.108Z,98606.75
2023-05-17T20:11:59.624Z,98605.34
2023-05-17T20:14:30.293Z,98615.88
2023-05-17T20:17:00.493Z,98613.53
2023-05-17T20:19:30.893Z,98612.16
2023-05-17T20:22:01.914Z,98615.41
2023-05-17T20:24:35.005Z,98607.53
2023-05-17T20:27:08.155Z,98616.78
2023-05-17T20:29:38.653Z,98611.09
2023-05-17T20:32:09.530Z,98607.69
2023-05-17T20:34:39.777Z,98616.19
2023-05-17T20:37:09.973Z,98614.31
2023-05-17T20:39:40.213Z,98617.25
2023-05-17T20:42:18.342Z,98624.50
2023-05-17T20:44:49.278Z,98614.31
2023-05-17T20:47:19.532Z,98623.56
2023-05-17T20:49:50.469Z,98630.84
2023-05-17T20:52:38.023Z,98640.22
2023-05-17T20:55:10.947Z,98629.28
2023-05-17T20:57:43.774Z,98635.28
2023-05-17T21:00:17.181Z,98635.75
2023-05-17T21:02:47.748Z,98633.41
2023-05-17T21:05:18.133Z,98637.44
2023-05-17T21:07:50.674Z,98634.50
2023-05-17T21:10:21.027Z,98637.59
2023-05-17T21:12:53.910Z,98642.50
2023-05-17T21:15:24.434Z,98643.41
2023-05-17T21:17:54.813Z,98637.84
2023-05-17T21:20:25.282Z,98645.09
2023-05-17T21:22:55.560Z,98646.00
2023-05-17T21:25:26.145Z,98646.91
2023-05-17T21:27:59.130Z,98645.38
2023-05-17T21:30:30.058Z,98648.41
2023-05-17T21:33:00.650Z,98647.34
2023-05-17T21:35:31.106Z,98645.94
2023-05-17T21:38:01.302Z,98647.00
2023-05-17T21:40:31.961Z,98644.81
2023-05-17T21:43:05.093Z,98642.19
2023-05-17T21:45:35.508Z,98649.88
2023-05-17T21:48:05.859Z,98647.22
2023-05-17T21:50:36.203Z,98646.91
2023-05-17T21:53:10.132Z,98646.56
2023-05-17T21:55:56.419Z,98646.56
2023-05-17T21:58:33.509Z,98642.41
2023-05-17T22:01:04.541Z,98646.06
2023-05-17T22:03:34.946Z,98644.66
2023-05-17T22:06:05.311Z,98648.19
2023-05-17T22:08:35.551Z,98641.56
2023-05-17T22:11:05.953Z,98642.16
2023-05-17T22:13:38.799Z,98639.84
2023-05-17T22:16:09.888Z,98648.88
2023-05-17T22:18:40.190Z,98649.31
2023-05-17T22:21:14.659Z,98647.31
2023-05-17T22:23:45.078Z,98651.97
2023-05-17T22:26:15.523Z,98643.66
2023-05-17T22:28:48.402Z,98650.53
2023-05-17T22:31:18.739Z,98645.78
2023-05-17T22:33:49.087Z,98655.78
2023-05-17T22:36:19.752Z,98648.81
2023-05-17T22:38:50.072Z,98652.50
2023-05-17T22:41:20.335Z,98650.50
2023-05-17T22:43:53.219Z,98648.16
2023-05-17T22:46:24.577Z,98651.53
2023-05-17T22:48:54.844Z,98657.97
2023-05-17T22:51:25.100Z,98657.22
2023-05-17T22:53:55.355Z,98657.66
2023-05-17T22:56:26.434Z,98660.09
2023-05-17T22:58:59.314Z,98653.78
2023-05-17T23:01:31.611Z,98657.66
2023-05-17T23:04:01.827Z,98654.88
2023-05-17T23:06:34.586Z,98654.09
2023-05-17T23:09:06.332Z,98655.75
2023-05-17T23:11:41.217Z,98661.00
2023-05-17T23:14:14.363Z,98655.91
2023-05-17T23:16:44.624Z,98651.59
2023-05-17T23:19:17.326Z,98655.47
2023-05-17T23:21:49.221Z,98657.13
2023-05-17T23:24:19.359Z,98657.56
2023-05-17T23:26:50.203Z,98646.19
2023-05-17T23:29:22.954Z,98644.31
2023-05-17T23:31:53.302Z,98653.84
2023-05-17T23:34:24.026Z,98648.75
2023-05-17T23:36:54.465Z,98654.75
2023-05-17T23:39:24.670Z,98654.09
2023-05-17T23:41:55.519Z,98658.88
2023-05-17T23:44:28.740Z,98655.44
2023-05-17T23:47:00.163Z,98661.75
2023-05-17T23:49:30.511Z,98653.91
2023-05-17T23:52:02.274Z,98652.94
2023-05-17T23:54:32.572Z,98653.03
2023-05-17T23:57:02.825Z,98652.72
2023-05-17T23:59:36.742Z,98656.03
